createdAt,value
2018-08-24T00:00:52.838Z,7.62
2018-08-24T00:01:58.976Z,5.95
2018-08-24T00:03:04.404Z,7.62
2018-08-24T00:04:10.369Z,8.27
2018-08-24T00:05:16.674Z,7.07
2018-08-24T00:06:23.013Z,7.68
2018-08-24T00:07:29.386Z,7.82
2018-08-24T00:08:35.992Z,6.37
2018-08-24T00:09:42.233Z,7.07
2018-08-24T00:10:48.351Z,7.87
2018-08-24T00:11:55.207Z,7.97
2018-08-24T00:13:01.576Z,7.03
2018-08-24T00:14:07.691Z,7.12
2018-08-24T00:15:13.788Z,6.82
2018-08-24T00:16:19.727Z,7.35
2018-08-24T00:17:25.463Z,6.80
2018-08-24T00:18:36.512Z,7.87
2018-08-24T00:19:42.758Z,9.43
2018-08-24T00:20:49.068Z,7.30
2018-08-24T00:21:55.420Z,7.75
2018-08-24T00:23:01.653Z,5.97
2018-08-24T00:24:06.980Z,7.35
2018-08-24T00:25:13.369Z,7.68
2018-08-24T00:26:19.604Z,7.70
2018-08-24T00:27:25.991Z,9.25
2018-08-24T00:28:32.259Z,7.68
2018-08-24T00:29:38.504Z,7.57
2018-08-24T00:30:44.759Z,7.10
2018-08-24T00:31:51.138Z,7.60
2018-08-24T00:32:58.156Z,7.25
2018-08-24T00:34:04.026Z,7.57
2018-08-24T00:35:10.383Z,8.65
2018-08-24T00:36:16.720Z,7.75
2018-08-24T00:37:22.677Z,8.05
2018-08-24T00:38:29.039Z,7.80
2018-08-24T00:39:35.329Z,9.00
2018-08-24T00:40:41.636Z,9.55
2018-08-24T00:41:47.976Z,8.45
2018-08-24T00:42:54.262Z,7.70
2018-08-24T00:44:01.308Z,8.57
2018-08-24T00:45:07.063Z,10.25
2018-08-24T00:46:13.327Z,10.13
2018-08-24T00:47:19.611Z,9.73
2018-08-24T00:48:25.570Z,11.77
2018-08-24T00:49:31.974Z,11.20
2018-08-24T00:50:38.265Z,12.80
2018-08-24T00:51:44.377Z,10.65
2018-08-24T00:52:50.461Z,9.45
2018-08-24T00:53:56.453Z,9.93
2018-08-24T00:55:02.803Z,9.32
2018-08-24T00:56:08.752Z,10.20
2018-08-24T00:57:14.804Z,10.60
2018-08-24T00:58:25.324Z,9.70
2018-08-24T00:59:30.976Z,11.12
2018-08-24T01:00:36.968Z,9.55
2018-08-24T01:01:47.232Z,9.30
2018-08-24T01:02:53.985Z,10.38
2018-08-24T01:04:00.385Z,9.40
2018-08-24T01:05:05.680Z,10.18
2018-08-24T01:06:11.844Z,9.50
2018-08-24T01:07:17.854Z,12.20
2018-08-24T01:08:24.192Z,11.07
2018-08-24T01:09:30.260Z,11.48
2018-08-24T01:10:36.119Z,10.95
2018-08-24T01:11:42.147Z,10.02
2018-08-24T01:12:48.583Z,9.65
2018-08-24T01:13:54.692Z,10.75
2018-08-24T01:15:01.029Z,10.63
2018-08-24T01:16:07.429Z,10.55
2018-08-24T01:17:12.800Z,10.23
2018-08-24T01:18:18.621Z,9.52
2018-08-24T01:19:24.922Z,10.38
2018-08-24T01:20:30.970Z,10.30
2018-08-24T01:21:37.225Z,10.60
2018-08-24T01:22:43.557Z,10.45
2018-08-24T01:23:49.471Z,9.80
2018-08-24T01:24:55.917Z,9.77
2018-08-24T01:26:02.613Z,10.35
2018-08-24T01:27:08.927Z,9.85
2018-08-24T01:28:15.232Z,9.95
2018-08-24T01:29:21.325Z,10.18
2018-08-24T01:30:27.664Z,10.15
2018-08-24T01:31:33.960Z,11.35
2018-08-24T01:32:40.293Z,11.77
2018-08-24T01:33:46.483Z,12.20
2018-08-24T01:34:52.802Z,11.40
2018-08-24T01:35:58.891Z,12.40
2018-08-24T01:37:04.500Z,9.68
2018-08-24T01:38:10.933Z,10.07
2018-08-24T01:39:16.985Z,10.88
2018-08-24T01:40:23.384Z,9.75
2018-08-24T01:41:29.649Z,10.02
2018-08-24T01:42:35.944Z,10.95
2018-08-24T01:43:42.276Z,10.73
2018-08-24T01:44:48.231Z,10.98
2018-08-24T01:45:54.331Z,11.80
2018-08-24T01:47:00.253Z,11.90
2018-08-24T01:48:06.008Z,11.50
2018-08-24T01:49:11.979Z,11.50
2018-08-24T01:50:18.307Z,10.00
2018-08-24T01:51:24.400Z,11.73
2018-08-24T01:52:30.716Z,11.73
2018-08-24T01:53:36.359Z,11.35
2018-08-24T01:54:42.406Z,11.77
2018-08-24T01:55:48.755Z,11.50
2018-08-24T01:56:55.032Z,10.90
2018-08-24T01:58:01.052Z,11.05
2018-08-24T01:59:07.444Z,11.65
2018-08-24T02:00:14.112Z,10.80
2018-08-24T02:01:20.733Z,11.45
2018-08-24T02:02:27.112Z,11.20
2018-08-24T02:03:33.435Z,10.68
2018-08-24T02:04:39.713Z,10.73
2018-08-24T02:05:46.060Z,11.50
2018-08-24T02:06:52.049Z,11.27
2018-08-24T02:07:58.089Z,11.50
2018-08-24T02:09:03.399Z,11.65
2018-08-24T02:10:09.184Z,11.20
2018-08-24T02:11:15.261Z,10.40
2018-08-24T02:12:21.392Z,10.05
2018-08-24T02:15:01.847Z,10.75
2018-08-24T02:16:08.972Z,11.45
2018-08-24T02:17:15.053Z,9.52
2018-08-24T02:19:52.704Z,9.98
2018-08-24T02:21:13.167Z,9.65
2018-08-24T02:22:19.328Z,9.27
2018-08-24T02:23:25.720Z,10.88
2018-08-24T02:24:32.114Z,10.20
2018-08-24T02:25:38.467Z,10.88
2018-08-24T02:26:44.755Z,10.18
2018-08-24T02:27:51.765Z,9.85
2018-08-24T02:28:58.091Z,10.90
2018-08-24T02:30:03.691Z,11.48
2018-08-24T02:31:09.709Z,10.32
2018-08-24T02:32:15.985Z,11.55
2018-08-24T02:33:22.581Z,9.27
2018-08-24T02:34:28.632Z,10.98
2018-08-24T02:35:35.072Z,10.98
2018-08-24T02:36:41.375Z,10.27
2018-08-24T02:37:47.451Z,10.40
2018-08-24T02:38:53.548Z,10.70
2018-08-24T02:39:59.583Z,9.98
2018-08-24T02:41:05.967Z,11.00
2018-08-24T02:42:12.393Z,11.15
2018-08-24T02:43:18.740Z,11.00
2018-08-24T02:44:25.258Z,10.35
2018-08-24T02:45:30.520Z,11.00
2018-08-24T02:46:36.859Z,9.88
2018-08-24T02:47:43.263Z,10.52
2018-08-24T02:49:04.539Z,10.35
2018-08-24T02:50:11.566Z,10.65
2018-08-24T02:51:18.042Z,11.10
2018-08-24T02:52:24.853Z,10.45
2018-08-24T02:53:31.190Z,11.40
2018-08-24T02:54:37.191Z,10.43
2018-08-24T02:55:43.313Z,10.13
2018-08-24T02:56:49.327Z,10.60
2018-08-24T02:57:55.743Z,10.98
2018-08-24T02:59:02.013Z,10.07
2018-08-24T03:00:08.415Z,10.65
2018-08-24T03:01:14.975Z,10.77
2018-08-24T03:02:21.473Z,10.82
2018-08-24T03:03:27.477Z,10.38
2018-08-24T03:04:34.088Z,10.75
2018-08-24T03:05:40.007Z,10.68
2018-08-24T03:06:46.213Z,10.13
2018-08-24T03:07:52.220Z,11.57
2018-08-24T03:08:58.260Z,10.30
2018-08-24T03:10:04.535Z,10.60
2018-08-24T03:11:10.818Z,10.40
2018-08-24T03:12:17.211Z,11.45
2018-08-24T03:13:24.114Z,11.48
2018-08-24T03:14:30.482Z,11.95
2018-08-24T03:15:36.834Z,10.38
2018-08-24T03:16:42.724Z,11.85
2018-08-24T03:17:48.803Z,11.90
2018-08-24T03:18:55.437Z,11.35
2018-08-24T03:20:01.845Z,11.05
2018-08-24T03:21:08.175Z,12.30
2018-08-24T03:22:14.465Z,12.00
2018-08-24T03:23:20.789Z,12.52
2018-08-24T03:24:27.100Z,12.25
2018-08-24T03:25:33.435Z,11.45
2018-08-24T03:26:39.400Z,12.73
2018-08-24T03:27:45.841Z,11.48
2018-08-24T03:28:51.957Z,12.75
2018-08-24T03:29:58.245Z,12.20
2018-08-24T03:31:04.371Z,11.80
2018-08-24T03:32:10.683Z,12.40
2018-08-24T03:33:16.973Z,12.40
2018-08-24T03:34:23.429Z,10.80
2018-08-24T03:35:30.056Z,11.15
2018-08-24T03:36:36.326Z,11.50
2018-08-24T03:37:42.319Z,13.07
2018-08-24T03:38:48.669Z,12.07
2018-08-24T03:39:55.148Z,11.90
2018-08-24T03:41:01.197Z,13.23
2018-08-24T03:42:06.584Z,14.77
2018-08-24T03:43:12.572Z,13.10
2018-08-24T03:44:18.617Z,13.30
2018-08-24T03:45:24.532Z,13.35
2018-08-24T03:46:31.004Z,13.50
2018-08-24T03:47:37.323Z,13.50
2018-08-24T03:48:43.641Z,14.45
2018-08-24T03:49:49.921Z,12.85
2018-08-24T03:50:56.022Z,14.77
2018-08-24T03:52:02.136Z,13.82
2018-08-24T03:53:08.462Z,14.70
2018-08-24T03:54:14.960Z,14.15
2018-08-24T03:55:20.952Z,15.63
2018-08-24T03:56:27.318Z,15.10
2018-08-24T03:57:35.574Z,14.52
2018-08-24T03:58:52.926Z,15.65
2018-08-24T04:00:02.878Z,14.63
2018-08-24T04:01:09.027Z,13.82
2018-08-24T04:02:15.353Z,15.35
2018-08-24T04:03:21.942Z,14.85
2018-08-24T04:04:27.983Z,16.20
2018-08-24T04:05:34.018Z,15.70
2018-08-24T04:06:40.072Z,14.30
2018-08-24T04:07:46.003Z,15.13
2018-08-24T04:08:52.535Z,16.80
2018-08-24T04:09:58.797Z,14.73
2018-08-24T04:11:04.785Z,16.70
2018-08-24T04:12:11.407Z,15.80
2018-08-24T04:13:17.825Z,14.85
2018-08-24T04:14:24.045Z,15.00
2018-08-24T04:15:30.228Z,12.57
2018-08-24T04:16:36.049Z,13.02
2018-08-24T04:17:42.256Z,13.93
2018-08-24T04:18:48.581Z,12.00
2018-08-24T04:19:54.614Z,12.48
2018-08-24T04:21:00.720Z,12.55
2018-08-24T04:22:06.720Z,12.45
2018-08-24T04:23:13.007Z,13.13
2018-08-24T04:24:19.318Z,11.73
2018-08-24T04:25:25.640Z,13.35
2018-08-24T04:26:32.686Z,14.70
2018-08-24T04:27:38.842Z,14.35
2018-08-24T04:28:45.287Z,13.93
2018-08-24T04:29:51.911Z,13.15
2018-08-24T04:30:58.332Z,12.25
2018-08-24T04:32:04.105Z,12.35
2018-08-24T04:33:10.195Z,12.52
2018-08-24T04:34:15.516Z,13.05
2018-08-24T04:35:22.229Z,11.98
2018-08-24T04:36:28.567Z,11.98
2018-08-24T04:37:34.847Z,11.88
2018-08-24T04:38:41.340Z,12.95
2018-08-24T04:39:48.579Z,12.37
2018-08-24T04:40:55.686Z,12.73
2018-08-24T04:42:05.881Z,12.88
2018-08-24T04:43:13.623Z,13.73
2018-08-24T04:44:21.013Z,12.48
2018-08-24T04:45:27.877Z,12.27
2018-08-24T04:46:34.360Z,13.48
2018-08-24T04:47:40.479Z,13.55
2018-08-24T04:48:46.791Z,13.82
2018-08-24T04:49:53.076Z,11.95
2018-08-24T04:50:59.179Z,13.20
2018-08-24T04:52:05.531Z,12.88
2018-08-24T04:53:11.853Z,14.85
2018-08-24T04:54:18.130Z,13.90
2018-08-24T04:55:24.530Z,13.35
2018-08-24T04:56:30.892Z,14.38
2018-08-24T04:57:37.413Z,15.35
2018-08-24T04:58:43.672Z,17.35
2018-08-24T04:59:49.726Z,13.40
2018-08-24T05:01:06.480Z,12.85
2018-08-24T05:02:27.765Z,12.40
2018-08-24T05:03:48.501Z,13.95
2018-08-24T05:04:57.563Z,13.98
2018-08-24T05:06:03.778Z,14.70
2018-08-24T05:07:10.067Z,14.43
2018-08-24T05:08:16.376Z,14.98
2018-08-24T05:09:22.667Z,14.27
2018-08-24T05:10:29.509Z,13.62
2018-08-24T05:11:37.237Z,14.40
2018-08-24T05:12:43.503Z,14.45
2018-08-24T05:13:49.748Z,16.20
2018-08-24T05:14:56.522Z,16.52
2018-08-24T05:16:02.709Z,18.08
2018-08-24T05:17:09.397Z,14.48
2018-08-24T05:18:15.720Z,15.70
2018-08-24T05:19:29.629Z,16.30
2018-08-24T05:20:44.272Z,15.90
2018-08-24T05:22:02.433Z,15.82
2018-08-24T05:23:20.210Z,16.75
2018-08-24T05:24:29.999Z,16.50
2018-08-24T05:25:37.599Z,18.12
2018-08-24T05:26:44.640Z,18.77
2018-08-24T05:27:51.509Z,16.12
2018-08-24T05:28:57.529Z,16.58
2018-08-24T05:30:03.873Z,14.20
2018-08-24T05:31:10.151Z,13.95
2018-08-24T05:32:16.496Z,15.50
2018-08-24T05:33:22.432Z,15.10
2018-08-24T05:34:28.792Z,14.75
2018-08-24T05:35:35.375Z,13.62
2018-08-24T05:36:42.070Z,14.65
2018-08-24T05:37:48.481Z,14.63
2018-08-24T05:38:54.779Z,14.82
2018-08-24T05:40:01.063Z,15.20
2018-08-24T05:41:07.657Z,15.25
2018-08-24T05:42:14.035Z,14.80
2018-08-24T05:43:20.308Z,13.57
2018-08-24T05:44:26.624Z,13.77
2018-08-24T05:45:32.937Z,14.07
2018-08-24T05:46:39.388Z,14.07
2018-08-24T05:47:46.095Z,13.88
2018-08-24T05:48:52.464Z,13.82
2018-08-24T05:49:58.665Z,13.43
2018-08-24T05:51:04.713Z,13.70
2018-08-24T05:52:11.000Z,13.88
2018-08-24T05:53:17.008Z,14.00
2018-08-24T05:54:23.447Z,15.00
2018-08-24T05:55:30.579Z,13.30
2018-08-24T05:56:38.041Z,15.45
2018-08-24T05:57:44.428Z,14.00
2018-08-24T05:58:50.580Z,14.02
2018-08-24T05:59:56.822Z,15.20
2018-08-24T06:01:02.954Z,13.68
2018-08-24T06:02:09.616Z,13.85
2018-08-24T06:03:16.282Z,14.70
2018-08-24T06:04:22.683Z,15.88
2018-08-24T06:05:28.685Z,14.38
2018-08-24T06:06:34.698Z,16.20
2018-08-24T06:07:40.960Z,15.60
2018-08-24T06:08:47.144Z,13.70
2018-08-24T06:09:53.537Z,13.65
2018-08-24T06:10:59.296Z,15.35
2018-08-24T06:12:05.099Z,15.73
2018-08-24T06:13:10.937Z,16.75
2018-08-24T06:14:16.942Z,15.75
2018-08-24T06:15:22.513Z,14.13
2018-08-24T06:16:28.428Z,16.35
2018-08-24T06:17:34.793Z,15.75
2018-08-24T06:18:41.179Z,15.40
2018-08-24T06:19:47.753Z,16.67
2018-08-24T06:20:54.085Z,17.87
2018-08-24T06:22:00.454Z,15.82
2018-08-24T06:23:06.749Z,16.05
2018-08-24T06:24:13.063Z,15.60
2018-08-24T06:25:19.049Z,15.20
2018-08-24T06:26:25.456Z,16.23
2018-08-24T06:27:31.878Z,15.05
2018-08-24T06:28:38.230Z,16.08
2018-08-24T06:29:45.309Z,15.77
2018-08-24T06:30:51.906Z,16.35
2018-08-24T06:31:58.135Z,14.90
2018-08-24T06:33:04.096Z,15.02
2018-08-24T06:34:10.179Z,16.33
2018-08-24T06:35:16.473Z,15.38
2018-08-24T06:36:22.908Z,14.60
2018-08-24T06:37:28.914Z,17.30
2018-08-24T06:38:35.226Z,16.20
2018-08-24T06:39:41.535Z,14.35
2018-08-24T06:40:48.843Z,15.50
2018-08-24T06:41:54.901Z,13.32
2018-08-24T06:43:01.376Z,14.15
2018-08-24T06:44:07.703Z,14.65
2018-08-24T06:45:14.044Z,15.52
2018-08-24T06:46:20.242Z,14.65
2018-08-24T06:47:26.641Z,13.90
2018-08-24T06:48:33.065Z,14.25
2018-08-24T06:49:39.578Z,15.25
2018-08-24T06:50:45.894Z,14.25
2018-08-24T06:51:52.212Z,14.50
2018-08-24T06:52:58.213Z,15.02
2018-08-24T06:54:05.039Z,14.25
2018-08-24T06:55:11.315Z,14.02
2018-08-24T06:56:17.664Z,14.52
2018-08-24T06:57:23.942Z,14.80
2018-08-24T06:58:30.285Z,14.63
2018-08-24T06:59:38.154Z,14.52
2018-08-24T07:00:44.743Z,13.65
2018-08-24T07:01:51.016Z,14.23
2018-08-24T07:02:58.061Z,12.88
2018-08-24T07:04:04.011Z,14.38
2018-08-24T07:05:10.373Z,13.10
2018-08-24T07:06:16.709Z,14.07
2018-08-24T07:07:22.997Z,13.05
2018-08-24T07:08:29.208Z,13.13
2018-08-24T07:09:35.149Z,12.77
2018-08-24T07:10:41.569Z,13.32
2018-08-24T07:11:47.575Z,13.02
2018-08-24T07:12:53.679Z,13.10
2018-08-24T07:14:00.201Z,13.20
2018-08-24T07:15:05.613Z,13.23
2018-08-24T07:16:11.654Z,11.05
2018-08-24T07:17:17.737Z,11.30
2018-08-24T07:18:24.090Z,11.43
2018-08-24T07:19:30.592Z,12.00
2018-08-24T07:20:36.944Z,10.27
2018-08-24T07:21:43.196Z,10.45
2018-08-24T07:22:49.650Z,10.50
2018-08-24T07:23:58.260Z,10.82
2018-08-24T07:25:04.151Z,10.02
2018-08-24T07:26:10.622Z,12.00
2018-08-24T07:27:16.854Z,11.20
2018-08-24T07:28:23.181Z,10.38
2018-08-24T07:29:29.445Z,10.80
2018-08-24T07:30:35.766Z,11.02
2018-08-24T07:31:42.083Z,10.68
2018-08-24T07:32:48.390Z,9.90
2018-08-24T07:33:55.412Z,10.82
2018-08-24T07:35:01.411Z,10.27
2018-08-24T07:36:07.757Z,9.65
2018-08-24T07:37:14.486Z,10.43
2018-08-24T07:38:20.780Z,9.45
2018-08-24T07:39:27.112Z,10.07
2018-08-24T07:40:33.433Z,10.38
2018-08-24T07:41:39.760Z,10.25
2018-08-24T07:42:45.900Z,10.13
2018-08-24T07:43:52.155Z,9.27
2018-08-24T07:44:58.210Z,9.05
2018-08-24T07:46:04.530Z,8.90
2018-08-24T07:47:10.980Z,7.97
2018-08-24T07:48:17.262Z,7.37
2018-08-24T07:49:23.598Z,7.82
2018-08-24T07:50:30.104Z,7.78
2018-08-24T07:51:36.412Z,6.80
2018-08-24T07:52:42.696Z,7.28
2018-08-24T07:53:48.917Z,6.03
2018-08-24T07:54:54.886Z,5.97
2018-08-24T07:56:01.007Z,5.85
2018-08-24T07:57:08.176Z,5.47
2018-08-24T07:58:14.342Z,5.07
2018-08-24T07:59:20.583Z,5.00
2018-08-24T08:00:26.884Z,5.03
2018-08-24T08:01:32.905Z,4.90
2018-08-24T08:02:38.648Z,4.40
2018-08-24T08:03:45.073Z,4.72
2018-08-24T08:04:51.091Z,4.75
2018-08-24T08:05:57.121Z,4.00
2018-08-24T08:07:03.490Z,4.20
2018-08-24T08:08:09.581Z,4.07
2018-08-24T08:09:15.626Z,4.40
2018-08-24T08:10:21.977Z,5.15
2018-08-24T08:11:27.862Z,4.20
2018-08-24T08:12:34.260Z,4.47
2018-08-24T08:13:40.423Z,4.10
2018-08-24T08:14:46.453Z,4.95
2018-08-24T08:15:52.741Z,3.50
2018-08-24T08:16:59.490Z,3.60
2018-08-24T08:18:05.790Z,3.60
2018-08-24T08:19:12.271Z,3.50
2018-08-24T08:20:18.386Z,4.60
2018-08-24T08:21:24.701Z,3.97
2018-08-24T08:22:31.007Z,3.97
2018-08-24T08:23:37.298Z,3.42
2018-08-24T08:24:54.280Z,4.10
2018-08-24T08:26:04.096Z,4.18
2018-08-24T08:27:10.375Z,3.87
2018-08-24T08:28:16.667Z,4.20
2018-08-24T08:29:22.762Z,3.50
2018-08-24T08:30:29.076Z,4.35
2018-08-24T08:31:35.216Z,4.28
2018-08-24T08:32:50.298Z,3.42
2018-08-24T08:34:00.345Z,3.47
2018-08-24T08:35:06.495Z,3.80
2018-08-24T08:36:12.516Z,3.60
2018-08-24T08:37:18.750Z,3.35
2018-08-24T08:38:33.794Z,3.30
2018-08-24T08:39:50.938Z,3.55
2018-08-24T08:40:57.117Z,3.55
2018-08-24T08:42:03.440Z,3.62
2018-08-24T08:43:09.521Z,3.97
2018-08-24T08:44:16.120Z,3.55
2018-08-24T08:45:23.123Z,3.67
2018-08-24T08:46:29.511Z,4.00
2018-08-24T08:47:36.523Z,3.72
2018-08-24T08:48:43.079Z,3.70
2018-08-24T08:49:49.342Z,4.25
2018-08-24T08:50:55.663Z,4.25
2018-08-24T08:52:01.673Z,4.43
2018-08-24T08:53:08.172Z,4.50
2018-08-24T08:54:14.474Z,4.40
2018-08-24T08:55:20.788Z,4.75
2018-08-24T08:56:26.561Z,4.40
2018-08-24T08:57:32.590Z,5.03
2018-08-24T08:58:38.810Z,4.50
2018-08-24T08:59:45.817Z,4.10
2018-08-24T09:00:52.166Z,5.00
2018-08-24T09:01:58.350Z,4.10
2018-08-24T09:03:04.615Z,4.75
2018-08-24T09:04:11.553Z,4.30
2018-08-24T09:05:17.744Z,4.40
2018-08-24T09:06:24.696Z,4.20
2018-08-24T09:07:31.280Z,4.70
2018-08-24T09:08:37.579Z,4.47
2018-08-24T09:09:43.906Z,4.28
2018-08-24T09:10:50.691Z,3.60
2018-08-24T09:11:56.943Z,3.90
2018-08-24T09:13:03.335Z,3.40
2018-08-24T09:14:09.954Z,5.00
2018-08-24T09:15:16.259Z,5.07
2018-08-24T09:16:22.536Z,4.45
2018-08-24T09:17:28.273Z,4.05
2018-08-24T09:18:39.807Z,4.30
2018-08-24T09:21:40.452Z,4.00
2018-08-24T09:23:05.020Z,4.00
2018-08-24T09:26:01.638Z,4.95
2018-08-24T09:27:22.321Z,4.50
2018-08-24T09:28:28.467Z,5.25
2018-08-24T09:29:34.630Z,5.15
2018-08-24T09:30:40.894Z,4.50
2018-08-24T09:31:46.925Z,6.15
2018-08-24T09:32:53.311Z,6.25
2018-08-24T09:33:59.966Z,5.70
2018-08-24T09:35:05.780Z,5.80
2018-08-24T09:36:11.962Z,5.80
2018-08-24T09:37:18.292Z,4.90
2018-08-24T09:38:24.586Z,4.35
2018-08-24T09:39:30.836Z,3.55
2018-08-24T09:40:36.937Z,3.30
2018-08-24T09:41:43.248Z,3.40
2018-08-24T09:42:49.703Z,2.90
2018-08-24T09:43:56.137Z,3.75
2018-08-24T09:45:02.488Z,3.45
2018-08-24T09:46:08.624Z,2.97
2018-08-24T09:47:14.361Z,4.10
2018-08-24T09:48:28.121Z,3.22
2018-08-24T09:49:34.112Z,3.00
2018-08-24T09:50:40.157Z,3.53
2018-08-24T09:51:46.587Z,2.92
2018-08-24T09:52:52.524Z,3.30
2018-08-24T09:54:00.516Z,3.20
2018-08-24T09:55:06.131Z,3.75
2018-08-24T09:56:12.489Z,3.40
2018-08-24T09:57:18.621Z,3.40
2018-08-24T09:58:24.915Z,4.30
2018-08-24T09:59:31.329Z,3.70
2018-08-24T10:00:37.773Z,4.00
2018-08-24T10:01:49.505Z,4.22
2018-08-24T10:02:55.664Z,5.05
2018-08-24T10:05:48.679Z,4.45
2018-08-24T10:07:24.537Z,5.30
2018-08-24T10:08:30.721Z,5.00
2018-08-24T10:09:37.006Z,4.57
2018-08-24T10:10:43.328Z,4.97
2018-08-24T10:11:49.629Z,5.12
2018-08-24T10:12:55.975Z,5.47
2018-08-24T10:14:02.401Z,4.80
2018-08-24T10:15:08.319Z,5.00
2018-08-24T10:16:14.260Z,5.12
2018-08-24T10:17:20.366Z,5.07
2018-08-24T10:18:26.604Z,6.05
2018-08-24T10:19:32.932Z,5.05
2018-08-24T10:20:39.197Z,5.50
2018-08-24T10:21:45.554Z,5.65
2018-08-24T10:22:52.326Z,5.00
2018-08-24T10:23:58.368Z,5.53
2018-08-24T10:25:03.964Z,6.12
2018-08-24T10:26:09.945Z,5.30
2018-08-24T10:27:16.252Z,4.60
2018-08-24T10:28:22.591Z,5.15
2018-08-24T10:29:29.029Z,5.70
2018-08-24T10:30:35.535Z,6.00
2018-08-24T10:31:41.823Z,5.95
2018-08-24T10:32:48.040Z,5.25
2018-08-24T10:33:54.466Z,5.65
2018-08-24T10:35:00.868Z,4.90
2018-08-24T10:36:07.163Z,5.20
2018-08-24T10:37:13.547Z,5.35
2018-08-24T10:38:20.495Z,4.87
2018-08-24T10:39:26.776Z,5.43
2018-08-24T10:40:33.030Z,5.85
2018-08-24T10:41:39.407Z,5.40
2018-08-24T10:42:45.653Z,5.60
2018-08-24T10:43:52.004Z,5.05
2018-08-24T10:44:58.296Z,6.03
2018-08-24T10:46:04.583Z,5.47
2018-08-24T10:47:11.594Z,5.43
2018-08-24T10:48:18.739Z,4.60
2018-08-24T10:49:25.787Z,4.00
2018-08-24T10:50:32.700Z,5.03
2018-08-24T10:51:38.875Z,4.55
2018-08-24T10:52:45.128Z,3.45
2018-08-24T10:53:51.110Z,4.55
2018-08-24T10:54:57.452Z,4.00
2018-08-24T10:56:03.807Z,4.50
2018-08-24T10:57:10.269Z,3.60
2018-08-24T10:58:16.595Z,4.53
2018-08-24T10:59:22.924Z,3.80
2018-08-24T11:00:29.200Z,3.92
2018-08-24T11:01:35.576Z,4.20
2018-08-24T11:02:41.932Z,3.67
2018-08-24T11:03:48.287Z,3.75
2018-08-24T11:04:55.022Z,4.25
2018-08-24T11:06:00.984Z,4.00
2018-08-24T11:07:07.294Z,3.70
2018-08-24T11:08:13.608Z,3.85
2018-08-24T11:09:19.603Z,3.90
2018-08-24T11:10:26.559Z,3.95
2018-08-24T11:11:32.879Z,3.95
2018-08-24T11:12:39.390Z,4.10
2018-08-24T11:13:45.468Z,4.18
2018-08-24T11:14:51.830Z,3.85
2018-08-24T11:15:58.095Z,4.05
2018-08-24T11:17:03.724Z,4.25
2018-08-24T11:18:10.024Z,3.80
2018-08-24T11:19:16.340Z,4.12
2018-08-24T11:20:23.436Z,3.92
2018-08-24T11:21:30.164Z,3.53
2018-08-24T11:22:36.476Z,4.18
2018-08-24T11:23:42.773Z,4.10
2018-08-24T11:24:49.832Z,3.62
2018-08-24T11:25:56.127Z,3.40
2018-08-24T11:27:01.788Z,3.97
2018-08-24T11:28:08.008Z,4.05
2018-08-24T11:29:14.425Z,3.80
2018-08-24T11:30:20.968Z,3.40
2018-08-24T11:31:27.304Z,3.80
2018-08-24T11:32:33.600Z,4.00
2018-08-24T11:33:39.909Z,3.67
2018-08-24T11:34:45.999Z,3.85
2018-08-24T11:35:52.438Z,4.12
2018-08-24T11:36:58.919Z,4.30
2018-08-24T11:38:05.266Z,4.22
2018-08-24T11:39:11.592Z,3.60
2018-08-24T11:40:18.175Z,4.00
2018-08-24T11:41:35.787Z,4.28
2018-08-24T11:42:42.069Z,4.00
2018-08-24T11:43:48.981Z,4.57
2018-08-24T11:44:55.017Z,4.05
2018-08-24T11:46:01.331Z,4.00
2018-08-24T11:47:07.623Z,4.15
2018-08-24T11:48:14.166Z,3.83
2018-08-24T11:49:21.808Z,4.20
2018-08-24T11:50:27.909Z,4.12
2018-08-24T11:51:33.888Z,3.97
2018-08-24T11:52:40.231Z,4.93
2018-08-24T11:53:46.531Z,3.70
2018-08-24T11:54:52.535Z,4.85
2018-08-24T11:55:58.837Z,4.37
2018-08-24T11:57:04.791Z,4.28
2018-08-24T11:58:11.040Z,4.20
2018-08-24T11:59:17.342Z,4.62
2018-08-24T12:00:24.124Z,4.90
2018-08-24T12:01:30.449Z,4.12
2018-08-24T12:02:36.705Z,3.92
2018-08-24T12:03:43.051Z,4.45
2018-08-24T12:04:49.364Z,4.22
2018-08-24T12:05:55.636Z,3.62
2018-08-24T12:07:01.843Z,4.12
2018-08-24T12:08:08.245Z,3.95
2018-08-24T12:09:15.236Z,3.83
2018-08-24T12:10:21.752Z,4.32
2018-08-24T12:11:28.617Z,4.50
2018-08-24T12:12:34.910Z,4.70
2018-08-24T12:13:41.392Z,4.68
2018-08-24T12:14:47.396Z,4.53
2018-08-24T12:15:53.672Z,4.97
2018-08-24T12:16:59.773Z,4.37
2018-08-24T12:18:06.019Z,4.35
2018-08-24T12:19:12.126Z,4.80
2018-08-24T12:20:18.447Z,4.37
2018-08-24T12:21:24.867Z,4.90
2018-08-24T12:22:31.364Z,4.80
2018-08-24T12:23:37.440Z,5.30
2018-08-24T12:24:43.796Z,5.28
2018-08-24T12:25:50.089Z,5.12
2018-08-24T12:26:56.281Z,5.18
2018-08-24T12:28:02.913Z,4.90
2018-08-24T12:29:09.197Z,4.35
2018-08-24T12:30:15.357Z,5.62
2018-08-24T12:31:21.636Z,5.20
2018-08-24T12:32:27.719Z,4.85
2018-08-24T12:33:33.751Z,4.60
2018-08-24T12:34:40.108Z,5.78
2018-08-24T12:35:46.722Z,5.20
2018-08-24T12:36:53.011Z,5.30
2018-08-24T12:37:59.336Z,4.90
2018-08-24T12:39:05.677Z,5.05
2018-08-24T12:40:15.550Z,5.40
2018-08-24T12:41:21.741Z,5.25
2018-08-24T12:42:28.374Z,5.78
2018-08-24T12:43:34.509Z,4.43
2018-08-24T12:44:40.604Z,5.18
2018-08-24T12:45:46.896Z,5.40
2018-08-24T12:46:53.851Z,5.12
2018-08-24T12:48:00.404Z,5.45
2018-08-24T12:49:06.739Z,5.20
2018-08-24T12:50:13.137Z,6.05
2018-08-24T12:51:19.330Z,5.40
2018-08-24T12:52:25.588Z,5.97
2018-08-24T12:53:31.887Z,5.50
2018-08-24T12:54:38.176Z,5.00
2018-08-24T12:55:44.216Z,5.57
2018-08-24T12:56:50.691Z,5.40
2018-08-24T12:57:56.804Z,6.10
2018-08-24T12:59:02.996Z,5.35
2018-08-24T13:00:09.380Z,5.25
2018-08-24T13:01:15.370Z,5.28
2018-08-24T13:02:21.764Z,5.18
2018-08-24T13:03:28.165Z,6.18
2018-08-24T13:04:34.481Z,5.75
2018-08-24T13:05:40.717Z,6.70
2018-08-24T13:06:47.492Z,5.85
2018-08-24T13:07:55.499Z,5.95
2018-08-24T13:09:01.466Z,5.87
2018-08-24T13:10:07.266Z,6.28
2018-08-24T13:11:13.693Z,5.90
2018-08-24T13:12:19.609Z,5.30
2018-08-24T13:13:25.992Z,6.12
2018-08-24T13:14:31.968Z,5.90
2018-08-24T13:15:38.336Z,5.75
2018-08-24T13:16:44.253Z,6.15
2018-08-24T13:17:50.867Z,5.93
2018-08-24T13:18:57.184Z,5.07
2018-08-24T13:20:03.677Z,5.07
2018-08-24T13:21:10.430Z,6.18
2018-08-24T13:22:16.750Z,6.15
2018-08-24T13:23:23.037Z,5.93
2018-08-24T13:24:29.345Z,5.35
2018-08-24T13:25:36.914Z,5.57
2018-08-24T13:26:43.161Z,6.50
2018-08-24T13:27:49.408Z,5.90
2018-08-24T13:28:55.703Z,5.70
2018-08-24T13:30:01.943Z,6.55
2018-08-24T13:31:09.064Z,6.80
2018-08-24T13:32:15.399Z,6.95
2018-08-24T13:33:22.176Z,6.45
2018-08-24T13:34:28.515Z,5.90
2018-08-24T13:35:34.837Z,6.18
2018-08-24T13:36:41.121Z,6.85
2018-08-24T13:37:47.326Z,6.25
2018-08-24T13:38:53.593Z,6.75
2018-08-24T13:39:59.977Z,6.70
2018-08-24T13:41:05.947Z,6.65
2018-08-24T13:42:11.982Z,6.87
2018-08-24T13:43:18.307Z,6.55
2018-08-24T13:44:25.010Z,7.03
2018-08-24T13:45:31.691Z,6.43
2018-08-24T13:46:38.660Z,7.00
2018-08-24T13:47:44.635Z,6.22
2018-08-24T13:48:50.493Z,6.93
2018-08-24T13:49:56.772Z,6.20
2018-08-24T13:51:02.992Z,6.30
2018-08-24T13:52:09.424Z,6.57
2018-08-24T13:53:15.212Z,7.07
2018-08-24T13:54:21.617Z,6.30
2018-08-24T13:55:27.622Z,6.60
2018-08-24T13:56:34.509Z,5.85
2018-08-24T13:57:42.128Z,6.53
2018-08-24T13:58:49.164Z,6.45
2018-08-24T13:59:55.532Z,6.00
2018-08-24T14:01:02.062Z,6.30
2018-08-24T14:02:08.352Z,5.78
2018-08-24T14:03:14.368Z,5.93
2018-08-24T14:04:20.814Z,6.90
2018-08-24T14:05:27.187Z,6.28
2018-08-24T14:06:33.563Z,5.72
2018-08-24T14:07:39.906Z,5.65
2018-08-24T14:08:46.216Z,5.70
2018-08-24T14:09:52.529Z,5.87
2018-08-24T14:10:58.872Z,6.70
2018-08-24T14:12:05.176Z,5.20
2018-08-24T14:13:11.215Z,5.25
2018-08-24T14:14:17.891Z,5.47
2018-08-24T14:15:24.221Z,5.53
2018-08-24T14:16:31.263Z,6.82
2018-08-24T14:17:37.620Z,5.90
2018-08-24T14:18:43.517Z,5.72
2018-08-24T14:19:49.512Z,5.60
2018-08-24T14:20:55.858Z,5.35
2018-08-24T14:22:02.397Z,5.43
2018-08-24T14:23:08.831Z,5.32
2018-08-24T14:24:15.739Z,5.57
2018-08-24T14:25:21.900Z,6.03
2018-08-24T14:26:28.229Z,6.20
2018-08-24T14:27:34.745Z,6.18
2018-08-24T14:28:41.117Z,6.25
2018-08-24T14:29:47.629Z,5.62
2018-08-24T14:30:53.545Z,6.32
2018-08-24T14:31:59.818Z,6.35
2018-08-24T14:33:05.740Z,6.95
2018-08-24T14:34:11.997Z,6.25
2018-08-24T14:35:18.407Z,6.55
2018-08-24T14:36:24.649Z,6.65
2018-08-24T14:37:30.838Z,5.72
2018-08-24T14:38:36.614Z,6.40
2018-08-24T14:39:42.940Z,5.22
2018-08-24T14:40:49.187Z,6.60
2018-08-24T14:41:56.204Z,5.68
2018-08-24T14:43:02.502Z,6.53